sensor_id;sensor_type;location;lat;lon;timestamp;pressure;altitude;pressure_sealevel;temperature;humidity
54306;BME280;66145;45.188;5.712;2023-05-13T00:01:20;98987.19;;;19.10;58.23
54306;BME280;66145;45.188;5.712;2023-05-13T00:03:46;98978.50;;;18.99;58.33
54306;BME280;66145;45.188;5.712;2023-05-13T00:06:11;98996.09;;;19.07;58.39
54306;BME280;66145;45.188;5.712;2023-05-13T00:08:36;98972.53;;;18.97;58.51
54306;BME280;66145;45.188;5.712;2023-05-13T00:11:02;98965.25;;;18.92;58.32
54306;BME280;66145;45.188;5.712;2023-05-13T00:13:27;98987.38;;;19.13;58.21
54306;BME280;66145;45.188;5.712;2023-05-13T00:15:52;98926.56;;;18.76;58.00
54306;BME280;66145;45.188;5.712;2023-05-13T00:18:18;98993.00;;;19.17;57.96
54306;BME280;66145;45.188;5.712;2023-05-13T00:20:43;98958.03;;;18.96;58.09
54306;BME280;66145;45.188;5.712;2023-05-13T00:23:09;98931.25;;;18.76;58.25
54306;BME280;66145;45.188;5.712;2023-05-13T00:25:36;98988.16;;;19.14;58.15
54306;BME280;66145;45.188;5.712;2023-05-13T00:28:01;98953.47;;;18.92;57.89
54306;BME280;66145;45.188;5.712;2023-05-13T00:30:27;98964.31;;;18.97;58.42
54306;BME280;66145;45.188;5.712;2023-05-13T00:32:52;98976.56;;;19.08;58.19
54306;BME280;66145;45.188;5.712;2023-05-13T00:35:17;98986.88;;;19.20;58.05
54306;BME280;66145;45.188;5.712;2023-05-13T00:37:43;98961.56;;;19.06;57.99
54306;BME280;66145;45.188;5.712;2023-05-13T00:40:29;98984.44;;;19.27;58.07
54306;BME280;66145;45.188;5.712;2023-05-13T00:42:54;98953.34;;;19.06;57.81
54306;BME280;66145;45.188;5.712;2023-05-13T00:45:20;98988.66;;;19.34;57.93
54306;BME280;66145;45.188;5.712;2023-05-13T00:47:46;98987.19;;;19.36;57.96
54306;BME280;66145;45.188;5.712;2023-05-13T00:50:13;98988.66;;;19.34;57.65
54306;BME280;66145;45.188;5.712;2023-05-13T00:52:39;98958.34;;;19.12;57.47
54306;BME280;66145;45.188;5.712;2023-05-13T00:55:06;98988.16;;;19.32;57.82
54306;BME280;66145;45.188;5.712;2023-05-13T00:57:32;98992.50;;;19.33;57.79
54306;BME280;66145;45.188;5.712;2023-05-13T00:59:57;98976.06;;;19.24;57.98
54306;BME280;66145;45.188;5.712;2023-05-13T01:02:31;98992.03;;;19.30;57.76
54306;BME280;66145;45.188;5.712;2023-05-13T01:08:06;98978.03;;;19.23;58.11
54306;BME280;66145;45.188;5.712;2023-05-13T01:13:10;98983.81;;;19.22;57.93
54306;BME280;66145;45.188;5.712;2023-05-13T01:15:46;98990.41;;;19.21;58.27
54306;BME280;66145;45.188;5.712;2023-05-13T01:18:35;98988.00;;;19.19;58.18
54306;BME280;66145;45.188;5.712;2023-05-13T01:21:02;98978.66;;;19.11;58.08
54306;BME280;66145;45.188;5.712;2023-05-13T01:23:29;98925.28;;;18.74;58.28
54306;BME280;66145;45.188;5.712;2023-05-13T01:25:54;98987.69;;;19.12;58.05
54306;BME280;66145;45.188;5.712;2023-05-13T01:28:20;98987.53;;;19.17;58.35
54306;BME280;66145;45.188;5.712;2023-05-13T01:30:46;98991.72;;;19.23;58.37
54306;BME280;66145;45.188;5.712;2023-05-13T01:33:13;98989.78;;;19.24;58.09
54306;BME280;66145;45.188;5.712;2023-05-13T01:35:39;98986.56;;;19.22;58.03
54306;BME280;66145;45.188;5.712;2023-05-13T01:38:06;98978.03;;;19.14;58.63
54306;BME280;66145;45.188;5.712;2023-05-13T01:40:32;98922.06;;;18.80;57.75
54306;BME280;66145;45.188;5.712;2023-05-13T01:42:58;98993.66;;;19.23;58.17
54306;BME280;66145;45.188;5.712;2023-05-13T01:45:27;98957.53;;;18.94;57.97
54306;BME280;66145;45.188;5.712;2023-05-13T01:47:52;98986.88;;;19.20;58.32
54306;BME280;66145;45.188;5.712;2023-05-13T01:50:18;98932.69;;;18.82;58.20
54306;BME280;66145;45.188;5.712;2023-05-13T01:52:43;98986.06;;;19.20;58.12
54306;BME280;66145;45.188;5.712;2023-05-13T01:55:08;98994.28;;;19.20;58.07
54306;BME280;66145;45.188;5.712;2023-05-13T01:57:33;98990.75;;;19.19;58.39
54306;BME280;66145;45.188;5.712;2023-05-13T01:59:59;98972.53;;;18.97;58.42
54306;BME280;66145;45.188;5.712;2023-05-13T02:02:24;98947.34;;;18.77;58.31
54306;BME280;66145;45.188;5.712;2023-05-13T02:04:50;98944.94;;;18.76;58.53
54306;BME280;66145;45.188;5.712;2023-05-13T02:07:15;98999.13;;;19.14;58.43
54306;BME280;66145;45.188;5.712;2023-05-13T02:09:40;98993.66;;;19.14;58.32
54306;BME280;66145;45.188;5.712;2023-05-13T02:12:06;98986.75;;;19.17;58.02
54306;BME280;66145;45.188;5.712;2023-05-13T02:14:32;98995.25;;;19.15;58.21
54306;BME280;66145;45.188;5.712;2023-05-13T02:16:57;98981.06;;;19.04;57.93
54306;BME280;66145;45.188;5.712;2023-05-13T02:19:23;98997.22;;;19.14;58.22
54306;BME280;66145;45.188;5.712;2023-05-13T02:21:48;98992.38;;;19.20;58.16
54306;BME280;66145;45.188;5.712;2023-05-13T02:24:14;98966.56;;;19.04;57.96
54306;BME280;66145;45.188;5.712;2023-05-13T02:26:39;98970.78;;;19.01;58.07
54306;BME280;66145;45.188;5.712;2023-05-13T02:29:06;98952.00;;;18.85;57.76
54306;BME280;66145;45.188;5.712;2023-05-13T02:31:31;99017.84;;;19.21;58.21
54306;BME280;66145;45.188;5.712;2023-05-13T02:33:57;98975.28;;;18.97;58.21
54306;BME280;66145;45.188;5.712;2023-05-13T02:36:22;99014.47;;;19.15;58.23
54306;BME280;66145;45.188;5.712;2023-05-13T02:38:47;98961.84;;;18.78;58.33
54306;BME280;66145;45.188;5.712;2023-05-13T02:41:13;98982.69;;;18.96;58.26
54306;BME280;66145;45.188;5.712;2023-05-13T02:43:38;99005.75;;;19.13;58.55
54306;BME280;66145;45.188;5.712;2023-05-13T02:46:03;98989.47;;;18.99;58.39
54306;BME280;66145;45.188;5.712;2023-05-13T02:48:29;98980.59;;;19.02;58.26
54306;BME280;66145;45.188;5.712;2023-05-13T02:50:54;98978.50;;;18.99;58.02
54306;BME280;66145;45.188;5.712;2023-05-13T02:53:19;98986.41;;;19.09;58.01
54306;BME280;66145;45.188;5.712;2023-05-13T02:55:45;98969.31;;;18.95;57.85
54306;BME280;66145;45.188;5.712;2023-05-13T02:58:10;99006.22;;;19.24;57.74
54306;BME280;66145;45.188;5.712;2023-05-13T03:00:35;99016.22;;;19.28;57.51
54306;BME280;66145;45.188;5.712;2023-05-13T03:03:01;99014.13;;;19.25;57.78
54306;BME280;66145;45.188;5.712;2023-05-13T03:05:26;99012.69;;;19.28;57.85
54306;BME280;66145;45.188;5.712;2023-05-13T03:07:51;98963.31;;;18.93;58.04
54306;BME280;66145;45.188;5.712;2023-05-13T03:10:17;99019.44;;;19.30;57.57
54306;BME280;66145;45.188;5.712;2023-05-13T03:12:42;99027.19;;;19.28;57.90
54306;BME280;66145;45.188;5.712;2023-05-13T03:15:08;99010.59;;;19.25;57.85
54306;BME280;66145;45.188;5.712;2023-05-13T03:17:34;99000.91;;;19.10;58.01
54306;BME280;66145;45.188;5.712;2023-05-13T03:19:59;99002.06;;;19.09;57.96
54306;BME280;66145;45.188;5.712;2023-05-13T03:22:25;99025.91;;;19.26;57.85
54306;BME280;66145;45.188;5.712;2023-05-13T03:24:50;98995.25;;;19.06;57.81
54306;BME280;66145;45.188;5.712;2023-05-13T03:27:16;99031.25;;;19.31;57.74
54306;BME280;66145;45.188;5.712;2023-05-13T03:29:41;98999.97;;;19.14;57.63
54306;BME280;66145;45.188;5.712;2023-05-13T03:32:06;98987.03;;;19.15;57.64
54306;BME280;66145;45.188;5.712;2023-05-13T03:34:32;99017.03;;;19.29;57.73
54306;BME280;66145;45.188;5.712;2023-05-13T03:37:00;99014.94;;;19.26;57.50
54306;BME280;66145;45.188;5.712;2023-05-13T03:39:25;99018.47;;;19.26;57.67
54306;BME280;66145;45.188;5.712;2023-05-13T03:41:51;98988.34;;;19.09;57.85
54306;BME280;66145;45.188;5.712;2023-05-13T03:44:16;98990.91;;;19.05;57.81
54306;BME280;66145;45.188;5.712;2023-05-13T03:46:42;99019.16;;;19.23;57.81
54306;BME280;66145;45.188;5.712;2023-05-13T03:49:08;99030.41;;;19.30;57.74
54306;BME280;66145;45.188;5.712;2023-05-13T03:51:33;99027.38;;;19.23;57.87
54306;BME280;66145;45.188;5.712;2023-05-13T03:53:59;99006.09;;;19.11;57.81
54306;BME280;66145;45.188;5.712;2023-05-13T03:56:24;99023.16;;;19.17;58.00
54306;BME280;66145;45.188;5.712;2023-05-13T03:58:50;99030.41;;;19.22;57.82
54306;BME280;66145;45.188;5.712;2023-05-13T04:01:15;99018.97;;;19.11;57.89
54306;BME280;66145;45.188;5.712;2023-05-13T04:03:40;99014.16;;;18.99;57.90
54306;BME280;66145;45.188;5.712;2023-05-13T04:06:09;99036.88;;;19.08;57.89
54306;BME280;66145;45.188;5.712;2023-05-13T04:08:35;99028.66;;;19.08;57.94
54306;BME280;66145;45.188;5.712;2023-05-13T04:11:00;99012.34;;;18.94;58.10
54306;BME280;66145;45.188;5.712;2023-05-13T04:13:25;99034.13;;;19.08;58.22
54306;BME280;66145;45.188;5.712;2023-05-13T04:15:51;99044.31;;;19.17;58.04
54306;BME280;66145;45.188;5.712;2023-05-13T04:18:18;98972.16;;;18.72;58.35
54306;BME280;66145;45.188;5.712;2023-05-13T04:20:43;99023.97;;;19.00;57.91
54306;BME280;66145;45.188;5.712;2023-05-13T04:23:09;99026.06;;;19.03;58.18
54306;BME280;66145;45.188;5.712;2023-05-13T04:25:34;99020.13;;;19.01;57.95
54306;BME280;66145;45.188;5.712;2023-05-13T04:28:01;99055.28;;;19.17;57.85
54306;BME280;66145;45.188;5.712;2023-05-13T04:30:26;99050.59;;;19.17;57.98
54306;BME280;66145;45.188;5.712;2023-05-13T04:32:52;99036.88;;;19.08;57.96
54306;BME280;66145;45.188;5.712;2023-05-13T04:35:17;99039.47;;;19.05;58.17
54306;BME280;66145;45.188;5.712;2023-05-13T04:37:42;99040.75;;;19.07;57.99
54306;BME280;66145;45.188;5.712;2023-05-13T04:40:09;99053.66;;;19.15;57.64
54306;BME280;66145;45.188;5.712;2023-05-13T04:42:35;99050.72;;;19.12;57.60
54306;BME280;66145;45.188;5.712;2023-05-13T04:45:00;99063.31;;;19.22;57.80
54306;BME280;66145;45.188;5.712;2023-05-13T04:47:26;99051.88;;;19.20;57.63
54306;BME280;66145;45.188;5.712;2023-05-13T04:49:51;99064.78;;;19.28;57.51
54306;BME280;66145;45.188;5.712;2023-05-13T04:52:17;99077.03;;;19.30;57.67
54306;BME280;66145;45.188;5.712;2023-05-13T04:54:43;99064.16;;;19.22;57.60
54306;BME280;66145;45.188;5.712;2023-05-13T04:57:08;99079.00;;;19.30;57.50
54306;BME280;66145;45.188;5.712;2023-05-13T04:59:34;99065.09;;;19.18;57.72
54306;BME280;66145;45.188;5.712;2023-05-13T05:01:59;99079.13;;;19.25;57.79
54306;BME280;66145;45.188;5.712;2023-05-13T05:04:26;99051.22;;;19.05;57.80
54306;BME280;66145;45.188;5.712;2023-05-13T05:06:51;99045.56;;;19.02;57.84
54306;BME280;66145;45.188;5.712;2023-05-13T05:09:16;99080.75;;;19.17;57.96
54306;BME280;66145;45.188;5.712;2023-05-13T05:11:43;99089.31;;;19.24;57.78
54306;BME280;66145;45.188;5.712;2023-05-13T05:14:08;99026.81;;;18.86;57.56
54306;BME280;66145;45.188;5.712;2023-05-13T05:16:33;99053.97;;;19.05;57.66
54306;BME280;66145;45.188;5.712;2023-05-13T05:18:59;99045.09;;;19.08;57.62
54306;BME280;66145;45.188;5.712;2023-05-13T05:21:24;99091.25;;;19.33;57.37
54306;BME280;66145;45.188;5.712;2023-05-13T05:23:50;99095.59;;;19.34;57.21
54306;BME280;66145;45.188;5.712;2023-05-13T05:26:15;99085.09;;;19.27;57.42
54306;BME280;66145;45.188;5.712;2023-05-13T05:28:41;99073.81;;;19.20;57.53
54306;BME280;66145;45.188;5.712;2023-05-13T05:31:07;99079.63;;;19.18;57.78
54306;BME280;66145;45.188;5.712;2023-05-13T05:33:34;99110.28;;;19.29;57.59
54306;BME280;66145;45.188;5.712;2023-05-13T05:36:00;99103.97;;;19.28;57.43
54306;BME280;66145;45.188;5.712;2023-05-13T05:38:25;99068.78;;;19.04;57.56
54306;BME280;66145;45.188;5.712;2023-05-13T05:40:50;99075.59;;;19.07;57.59
54306;BME280;66145;45.188;5.712;2023-05-13T05:43:16;99101.06;;;19.25;57.64
54306;BME280;66145;45.188;5.712;2023-05-13T05:45:42;99093.97;;;19.24;57.55
54306;BME280;66145;45.188;5.712;2023-05-13T05:48:07;99080.88;;;19.12;57.64
54306;BME280;66145;45.188;5.712;2023-05-13T05:50:33;99098.00;;;19.18;57.63
54306;BME280;66145;45.188;5.712;2023-05-13T05:52:59;99072.97;;;19.02;57.66
54306;BME280;66145;45.188;5.712;2023-05-13T05:55:25;99077.34;;;19.03;57.87
54306;BME280;66145;45.188;5.712;2023-05-13T05:57:53;99113.50;;;19.22;57.64
54306;BME280;66145;45.188;5.712;2023-05-13T06:00:19;99110.56;;;19.19;57.85
54306;BME280;66145;45.188;5.712;2023-05-13T06:02:44;99044.22;;;18.73;57.71
54306;BME280;66145;45.188;5.712;2023-05-13T06:05:10;99058.44;;;18.83;57.60
54306;BME280;66145;45.188;5.712;2023-05-13T06:07:35;99126.56;;;19.17;57.86
54306;BME280;66145;45.188;5.712;2023-05-13T06:10:01;99098.44;;;19.02;57.97
54306;BME280;66145;45.188;5.712;2023-05-13T06:12:26;99086.66;;;18.93;58.12
54306;BME280;66145;45.188;5.712;2023-05-13T06:14:51;99104.75;;;19.03;58.25
54306;BME280;66145;45.188;5.712;2023-05-13T06:17:17;99135.09;;;19.15;58.08
54306;BME280;66145;45.188;5.712;2023-05-13T06:19:42;99089.56;;;18.96;57.86
54306;BME280;66145;45.188;5.712;2023-05-13T06:22:09;99119.13;;;19.17;57.42
54306;BME280;66145;45.188;5.712;2023-05-13T06:24:35;99119.75;;;19.14;57.95
54306;BME280;66145;45.188;5.712;2023-05-13T06:27:00;99130.09;;;19.17;57.86
54306;BME280;66145;45.188;5.712;2023-05-13T06:29:26;99082.44;;;18.87;57.75
54306;BME280;66145;45.188;5.712;2023-05-13T06:31:51;99137.81;;;19.15;58.13
54306;BME280;66145;45.188;5.712;2023-05-13T06:34:17;99097.94;;;18.91;58.12
54306;BME280;66145;45.188;5.712;2023-05-13T06:36:42;99129.28;;;19.08;57.83
54306;BME280;66145;45.188;5.712;2023-05-13T06:39:08;99097.94;;;18.91;58.01
54306;BME280;66145;45.188;5.712;2023-05-13T06:41:34;99127.97;;;19.05;57.91
54306;BME280;66145;45.188;5.712;2023-05-13T06:44:00;99128.28;;;19.04;58.15
54306;BME280;66145;45.188;5.712;2023-05-13T06:46:25;99103.56;;;18.86;58.31
54306;BME280;66145;45.188;5.712;2023-05-13T06:48:50;99136.03;;;19.02;58.29
54306;BME280;66145;45.188;5.712;2023-05-13T06:51:17;99144.28;;;19.10;58.02
54306;BME280;66145;45.188;5.712;2023-05-13T06:53:43;99130.41;;;19.07;58.22
54306;BME280;66145;45.188;5.712;2023-05-13T06:56:08;99145.25;;;19.14;57.78
54306;BME280;66145;45.188;5.712;2023-05-13T06:58:33;99081.94;;;18.76;58.06
54306;BME280;66145;45.188;5.712;2023-05-13T07:00:59;99145.56;;;19.13;58.03
54306;BME280;66145;45.188;5.712;2023-05-13T07:03:24;99124.28;;;19.01;57.85
54306;BME280;66145;45.188;5.712;2023-05-13T07:05:49;99149.91;;;19.14;58.15
54306;BME280;66145;45.188;5.712;2023-05-13T07:08:15;99139.28;;;19.12;57.89
54306;BME280;66145;45.188;5.712;2023-05-13T07:10:42;99051.41;;;18.51;58.08
54306;BME280;66145;45.188;5.712;2023-05-13T07:13:07;99118.75;;;18.92;58.02
54306;BME280;66145;45.188;5.712;2023-05-13T07:15:33;99145.41;;;19.09;57.90
54306;BME280;66145;45.188;5.712;2023-05-13T07:17:58;99088.34;;;18.71;57.99
54306;BME280;66145;45.188;5.712;2023-05-13T07:20:23;99121.78;;;18.91;58.11
54306;BME280;66145;45.188;5.712;2023-05-13T07:22:50;99127.16;;;18.96;58.11
54306;BME280;66145;45.188;5.712;2023-05-13T07:25:17;99148.13;;;19.09;58.30
54306;BME280;66145;45.188;5.712;2023-05-13T07:27:43;99123.88;;;18.94;58.17
54306;BME280;66145;45.188;5.712;2023-05-13T07:30:09;99122.41;;;18.88;58.15
54306;BME280;66145;45.188;5.712;2023-05-13T07:32:35;99154.28;;;19.15;57.95
54306;BME280;66145;45.188;5.712;2023-05-13T07:35:04;99158.50;;;19.21;58.30
54306;BME280;66145;45.188;5.712;2023-05-13T07:37:30;99140.06;;;19.13;58.33
54306;BME280;66145;45.188;5.712;2023-05-13T07:39:55;99094.34;;;18.82;58.34
54306;BME280;66145;45.188;5.712;2023-05-13T07:42:21;99144.28;;;19.19;58.34
54306;BME280;66145;45.188;5.712;2023-05-13T07:44:46;99124.94;;;19.07;57.66
54306;BME280;66145;45.188;5.712;2023-05-13T07:47:12;99128.63;;;19.11;58.38
54306;BME280;66145;45.188;5.712;2023-05-13T07:49:38;99137.19;;;19.18;58.67
54306;BME280;66145;45.188;5.712;2023-05-13T07:52:03;99150.91;;;19.18;58.61
54306;BME280;66145;45.188;5.712;2023-05-13T07:54:29;99131.88;;;19.22;58.31
54306;BME280;66145;45.188;5.712;2023-05-13T07:56:54;99131.06;;;19.21;58.32
54306;BME280;66145;45.188;5.712;2023-05-13T07:59:19;99129.31;;;19.17;58.49
54306;BME280;66145;45.188;5.712;2023-05-13T08:01:45;99115.72;;;19.03;58.69
54306;BME280;66145;45.188;5.712;2023-05-13T08:04:10;99140.44;;;19.20;58.60
54306;BME280;66145;45.188;5.712;2023-05-13T08:06:36;99133.00;;;19.21;58.65
54306;BME280;66145;45.188;5.712;2023-05-13T08:09:01;99095.25;;;19.00;58.64
54306;BME280;66145;45.188;5.712;2023-05-13T08:11:27;99139.59;;;19.20;58.63
54306;BME280;66145;45.188;5.712;2023-05-13T08:13:52;99136.22;;;19.14;58.70
54306;BME280;66145;45.188;5.712;2023-05-13T08:16:18;99136.38;;;19.18;58.46
54306;BME280;66145;45.188;5.712;2023-05-13T08:18:43;99102.28;;;18.92;58.48
54306;BME280;66145;45.188;5.712;2023-05-13T08:21:08;99135.06;;;19.06;58.70
54306;BME280;66145;45.188;5.712;2023-05-13T08:23:35;99107.28;;;18.90;58.49
54306;BME280;66145;45.188;5.712;2023-05-13T08:26:01;99122.31;;;19.02;58.47
54306;BME280;66145;45.188;5.712;2023-05-13T08:28:27;99127.47;;;19.03;58.54
54306;BME280;66145;45.188;5.712;2023-05-13T08:30:53;99070.28;;;18.61;58.60
54306;BME280;66145;45.188;5.712;2023-05-13T08:33:19;99140.72;;;19.10;58.70
54306;BME280;66145;45.188;5.712;2023-05-13T08:35:45;99137.66;;;19.11;58.56
54306;BME280;66145;45.188;5.712;2023-05-13T08:38:11;99123.94;;;19.03;58.58
54306;BME280;66145;45.188;5.712;2023-05-13T08:40:36;99136.22;;;19.14;58.48
54306;BME280;66145;45.188;5.712;2023-05-13T08:43:03;99080.66;;;18.82;58.43
54306;BME280;66145;45.188;5.712;2023-05-13T08:45:29;99133.16;;;19.15;58.46
54306;BME280;66145;45.188;5.712;2023-05-13T08:47:59;99131.84;;;19.13;58.52
54306;BME280;66145;45.188;5.712;2023-05-13T08:50:27;99132.97;;;19.12;58.50
54306;BME280;66145;45.188;5.712;2023-05-13T08:52:53;99108.28;;;18.94;58.61
54306;BME280;66145;45.188;5.712;2023-05-13T08:55:18;99120.53;;;18.97;58.26
54306;BME280;66145;45.188;5.712;2023-05-13T08:57:44;99083.22;;;18.78;58.06
54306;BME280;66145;45.188;5.712;2023-05-13T09:00:10;99138.47;;;19.12;58.17
54306;BME280;66145;45.188;5.712;2023-05-13T09:02:36;99129.44;;;19.11;58.48
54306;BME280;66145;45.188;5.712;2023-05-13T09:05:04;99130.41;;;19.07;58.15
54306;BME280;66145;45.188;5.712;2023-05-13T09:07:34;99106.34;;;18.95;58.15
54306;BME280;66145;45.188;5.712;2023-05-13T09:09:59;99128.78;;;19.06;58.60
54306;BME280;66145;45.188;5.712;2023-05-13T09:15:14;99116.03;;;19.10;58.18
54306;BME280;66145;45.188;5.712;2023-05-13T09:17:43;99116.53;;;19.12;57.99
54306;BME280;66145;45.188;5.712;2023-05-13T09:20:12;99084.44;;;18.95;58.02
54306;BME280;66145;45.188;5.712;2023-05-13T09:22:58;99107.66;;;19.15;58.39
54306;BME280;66145;45.188;5.712;2023-05-13T09:25:25;99099.28;;;19.11;58.13
54306;BME280;66145;45.188;5.712;2023-05-13T09:27:53;99106.22;;;19.18;58.20
54306;BME280;66145;45.188;5.712;2023-05-13T09:30:22;99085.06;;;19.00;58.06
54306;BME280;66145;45.188;5.712;2023-05-13T09:33:08;99106.53;;;19.16;58.24
54306;BME280;66145;45.188;5.712;2023-05-13T09:35:42;99103.00;;;19.15;58.09
54306;BME280;66145;45.188;5.712;2023-05-13T09:38:18;99090.09;;;19.07;58.05
54306;BME280;66145;45.188;5.712;2023-05-13T09:40:58;99100.09;;;19.12;57.89
54306;BME280;66145;45.188;5.712;2023-05-13T09:43:30;99077.28;;;18.94;57.91
54306;BME280;66145;45.188;5.712;2023-05-13T09:45:59;99059.38;;;18.88;58.08
54306;BME280;66145;45.188;5.712;2023-05-13T09:48:27;99061.16;;;18.83;58.20
54306;BME280;66145;45.188;5.712;2023-05-13T09:50:53;99068.06;;;18.81;58.02
54306;BME280;66145;45.188;5.712;2023-05-13T09:53:20;99081.69;;;18.95;57.52
54306;BME280;66145;45.188;5.712;2023-05-13T09:55:50;99070.53;;;18.91;56.98
54306;BME280;66145;45.188;5.712;2023-05-13T09:58:16;99063.09;;;18.83;56.63
54306;BME280;66145;45.188;5.712;2023-05-13T10:00:43;99065.19;;;18.86;56.27
54306;BME280;66145;45.188;5.712;2023-05-13T10:03:09;99102.34;;;19.10;56.58
54306;BME280;66145;45.188;5.712;2023-05-13T10:05:35;99031.00;;;18.66;56.37
54306;BME280;66145;45.188;5.712;2023-05-13T10:08:01;99075.06;;;18.96;56.46
54306;BME280;66145;45.188;5.712;2023-05-13T10:10:31;99093.16;;;19.06;56.66
54306;BME280;66145;45.188;5.712;2023-05-13T10:13:04;99093.47;;;19.04;56.25
54306;BME280;66145;45.188;5.712;2023-05-13T10:15:31;99096.69;;;19.06;56.67
54306;BME280;66145;45.188;5.712;2023-05-13T10:17:58;99103.78;;;19.07;56.60
54306;BME280;66145;45.188;5.712;2023-05-13T10:20:24;99064.06;;;18.87;56.53
54306;BME280;66145;45.188;5.712;2023-05-13T10:22:51;99088.31;;;19.03;56.78
54306;BME280;66145;45.188;5.712;2023-05-13T10:25:17;99073.09;;;18.88;56.55
54306;BME280;66145;45.188;5.712;2023-05-13T10:27:43;99078.41;;;18.84;56.71
54306;BME280;66145;45.188;5.712;2023-05-13T10:30:09;99102.50;;;19.05;56.67
54306;BME280;66145;45.188;5.712;2023-05-13T10:32:36;99105.53;;;19.03;56.90
54306;BME280;66145;45.188;5.712;2023-05-13T10:35:07;99072.28;;;18.87;56.53
54306;BME280;66145;45.188;5.712;2023-05-13T10:40:28;99098.16;;;19.12;56.39
54306;BME280;66145;45.188;5.712;2023-05-13T10:43:22;99065.84;;;18.92;56.45
54306;BME280;66145;45.188;5.712;2023-05-13T10:45:57;99100.56;;;19.14;56.55
54306;BME280;66145;45.188;5.712;2023-05-13T10:48:24;99065.06;;;18.91;56.61
54306;BME280;66145;45.188;5.712;2023-05-13T10:50:59;99061.31;;;18.87;56.88
54306;BME280;66145;45.188;5.712;2023-05-13T10:53:36;99086.69;;;19.10;56.73
54306;BME280;66145;45.188;5.712;2023-05-13T10:56:02;99105.06;;;19.10;56.53
54306;BME280;66145;45.188;5.712;2023-05-13T10:58:33;99097.19;;;19.08;56.78
54306;BME280;66145;45.188;5.712;2023-05-13T11:03:39;99074.88;;;18.92;56.79
54306;BME280;66145;45.188;5.712;2023-05-13T11:06:15;99059.72;;;18.86;56.51
54306;BME280;66145;45.188;5.712;2023-05-13T11:08:44;99040.00;;;18.66;56.80
54306;BME280;66145;45.188;5.712;2023-05-13T11:14:06;99088.47;;;19.06;56.66
54306;BME280;66145;45.188;5.712;2023-05-13T11:16:35;99066.34;;;18.94;56.48
54306;BME280;66145;45.188;5.712;2023-05-13T11:19:02;99080.09;;;19.11;56.48
54306;BME280;66145;45.188;5.712;2023-05-13T11:21:30;99088.81;;;19.13;56.59
54306;BME280;66145;45.188;5.712;2023-05-13T11:26:23;99060.41;;;19.09;56.57
54306;BME280;66145;45.188;5.712;2023-05-13T11:29:08;99078.47;;;19.10;56.45
54306;BME280;66145;45.188;5.712;2023-05-13T11:31:47;99069.44;;;19.10;56.42
54306;BME280;66145;45.188;5.712;2023-05-13T11:34:16;99041.19;;;18.92;56.52
54306;BME280;66145;45.188;5.712;2023-05-13T11:36:50;99031.66;;;18.89;56.42
54306;BME280;66145;45.188;5.712;2023-05-13T11:39:20;99068.47;;;19.06;56.52
54306;BME280;66145;45.188;5.712;2023-05-13T11:41:48;99029.91;;;18.84;56.55
54306;BME280;66145;45.188;5.712;2023-05-13T11:44:16;98990.97;;;18.47;56.72
54306;BME280;66145;45.188;5.712;2023-05-13T11:51:54;99068.13;;;18.98;56.73
54306;BME280;66145;45.188;5.712;2023-05-13T11:54:19;99046.50;;;18.88;56.52
54306;BME280;66145;45.188;5.712;2023-05-13T11:56:45;99031.03;;;18.83;56.51
54306;BME280;66145;45.188;5.712;2023-05-13T11:59:13;99043.44;;;18.90;56.38
54306;BME280;66145;45.188;5.712;2023-05-13T12:01:39;99018.94;;;18.76;56.57
54306;BME280;66145;45.188;5.712;2023-05-13T12:04:05;99067.50;;;19.02;56.93
54306;BME280;66145;45.188;5.712;2023-05-13T12:06:31;99067.34;;;19.07;56.55
54306;BME280;66145;45.188;5.712;2023-05-13T12:09:04;99044.41;;;18.85;56.64
54306;BME280;66145;45.188;5.712;2023-05-13T12:11:29;99061.88;;;19.07;56.81
54306;BME280;66145;45.188;5.712;2023-05-13T12:13:55;99035.69;;;18.83;56.56
54306;BME280;66145;45.188;5.712;2023-05-13T12:16:20;99029.06;;;18.84;56.63
54306;BME280;66145;45.188;5.712;2023-05-13T12:19:03;99064.44;;;19.03;56.50
54306;BME280;66145;45.188;5.712;2023-05-13T12:21:32;99048.78;;;18.95;56.69
54306;BME280;66145;45.188;5.712;2023-05-13T12:23:59;99036.03;;;18.90;56.60
54306;BME280;66145;45.188;5.712;2023-05-13T12:26:24;99059.91;;;18.98;56.59
54306;BME280;66145;45.188;5.712;2023-05-13T12:28:59;99054.44;;;18.98;56.55
54306;BME280;66145;45.188;5.712;2023-05-13T12:31:24;99068.47;;;18.97;56.77
54306;BME280;66145;45.188;5.712;2023-05-13T12:33:50;99063.09;;;18.92;56.80
54306;BME280;66145;45.188;5.712;2023-05-13T12:36:24;99038.09;;;18.76;56.80
54306;BME280;66145;45.188;5.712;2023-05-13T12:39:03;99067.66;;;18.96;56.89
54306;BME280;66145;45.188;5.712;2023-05-13T12:41:33;99062.16;;;18.96;56.85
54306;BME280;66145;45.188;5.712;2023-05-13T12:44:01;99052.81;;;18.97;56.62
54306;BME280;66145;45.188;5.712;2023-05-13T12:46:27;99034.22;;;18.85;56.51
54306;BME280;66145;45.188;5.712;2023-05-13T12:48:58;99040.25;;;18.96;56.34
54306;BME280;66145;45.188;5.712;2023-05-13T12:51:24;99058.81;;;19.08;56.34
54306;BME280;66145;45.188;5.712;2023-05-13T12:53:49;99048.16;;;19.07;56.40
54306;BME280;66145;45.188;5.712;2023-05-13T12:56:16;99019.88;;;18.89;56.74
54306;BME280;66145;45.188;5.712;2023-05-13T12:58:41;99041.06;;;19.06;56.47
54306;BME280;66145;45.188;5.712;2023-05-13T13:01:07;99039.13;;;19.06;56.63
54306;BME280;66145;45.188;5.712;2023-05-13T13:03:32;99035.59;;;18.97;56.56
54306;BME280;66145;45.188;5.712;2023-05-13T13:05:58;99058.81;;;19.08;56.53
54306;BME280;66145;45.188;5.712;2023-05-13T13:08:23;99021.19;;;18.82;56.55
54306;BME280;66145;45.188;5.712;2023-05-13T13:10:49;99050.56;;;18.99;56.53
54306;BME280;66145;45.188;5.712;2023-05-13T13:13:14;99058.66;;;19.05;56.57
54306;BME280;66145;45.188;5.712;2023-05-13T13:15:40;99046.84;;;19.04;56.40
54306;BME280;66145;45.188;5.712;2023-05-13T13:18:05;99021.00;;;18.79;56.69
54306;BME280;66145;45.188;5.712;2023-05-13T13:20:30;99053.00;;;19.01;56.55
54306;BME280;66145;45.188;5.712;2023-05-13T13:22:56;99046.84;;;19.04;56.67